地図

経路データ

SID SEASON NUMBER BASIN SUBBASIN NAME ISO_TIME NATURE LAT LON WMO_WIND WMO_PRES WMO_AGENCY TRACK_TYPE DIST2LAND LANDFALL IFLAG USA_AGENCY USA_ATCF_ID USA_LAT USA_LON USA_RECORD USA_STATUS USA_WIND USA_PRES USA_SSHS USA_R34_NE USA_R34_SE USA_R34_SW USA_R34_NW USA_R50_NE USA_R50_SE USA_R50_SW USA_R50_NW USA_R64_NE USA_R64_SE USA_R64_SW USA_R64_NW USA_POCI USA_ROCI USA_RMW USA_EYE TOKYO_LAT TOKYO_LON TOKYO_GRADE TOKYO_WIND TOKYO_PRES TOKYO_R50_DIR TOKYO_R50_LONG TOKYO_R50_SHORT TOKYO_R30_DIR TOKYO_R30_LONG TOKYO_R30_SHORT TOKYO_LAND CMA_LAT CMA_LON CMA_CAT CMA_WIND CMA_PRES HKO_LAT HKO_LON HKO_CAT HKO_WIND HKO_PRES NEWDELHI_LAT NEWDELHI_LON NEWDELHI_GRADE NEWDELHI_WIND NEWDELHI_PRES NEWDELHI_CI NEWDELHI_DP NEWDELHI_POCI REUNION_LAT REUNION_LON REUNION_TYPE REUNION_WIND REUNION_PRES REUNION_TNUM REUNION_CI REUNION_RMW REUNION_R34_NE REUNION_R34_SE REUNION_R34_SW REUNION_R34_NW REUNION_R50_NE REUNION_R50_SE REUNION_R50_SW REUNION_R50_NW REUNION_R64_NE REUNION_R64_SE REUNION_R64_SW REUNION_R64_NW BOM_LAT BOM_LON BOM_TYPE BOM_WIND BOM_PRES BOM_TNUM BOM_CI BOM_RMW BOM_R34_NE BOM_R34_SE BOM_R34_SW BOM_R34_NW BOM_R50_NE BOM_R50_SE BOM_R50_SW BOM_R50_NW BOM_R64_NE BOM_R64_SE BOM_R64_SW BOM_R64_NW BOM_ROCI BOM_POCI BOM_EYE BOM_POS_METHOD BOM_PRES_METHOD NADI_LAT NADI_LON NADI_CAT NADI_WIND NADI_PRES WELLINGTON_LAT WELLINGTON_LON WELLINGTON_WIND WELLINGTON_PRES DS824_LAT DS824_LON DS824_STAGE DS824_WIND DS824_PRES TD9636_LAT TD9636_LON TD9636_STAGE TD9636_WIND TD9636_PRES TD9635_LAT TD9635_LON TD9635_WIND TD9635_PRES TD9635_ROCI NEUMANN_LAT NEUMANN_LON NEUMANN_CLASS NEUMANN_WIND NEUMANN_PRES MLC_LAT MLC_LON MLC_CLASS MLC_WIND MLC_PRES USA_GUST BOM_GUST BOM_GUST_PER REUNION_GUST REUNION_GUST_PER USA_SEAHGT USA_SEARAD_NE USA_SEARAD_SE USA_SEARAD_SW USA_SEARAD_NW STORM_SPEED STORM_DIR
1974353S15185 1975 142 SP MM NOT_NAMED 1974-12-18 12:00:00 TS -15.2000 -175.500 main 347 329 O________OO___ jtwc_sh SH061975 -15.2000 -175.500 -1 -15.2000 184.500 TC -15.2000 -175.500 2 11 128
1974353S15185 1975 142 SP MM NOT_NAMED 1974-12-18 15:00:00 TS -15.5397 -175.053 main 329 318 P________PP___ SH061975 -15.5202 -175.050 -1 -15.5202 -175.050 TC -15.5787 -175.058 2 11 130
1974353S15185 1975 142 SP MM NOT_NAMED 1974-12-18 18:00:00 TS -15.9285 -174.604 main 318 318 O________OP___ jtwc_sh SH061975 -15.9000 -174.600 -1 -15.9000 185.400 TC -15.9856 -174.613 2 12 135
1974353S15185 1975 142 SP MM NOT_NAMED 1974-12-18 21:00:00 TS -16.4098 -174.154 main 337 332 P________PP___ SH061975 -16.3899 -174.150 -1 -16.3899 -174.150 TC -16.4497 -174.161 2 14 141
1974353S15185 1975 142 SP MM NOT_NAMED 1974-12-19 00:00:00 TS -17.0000 -173.700 main 377 377 O________OO_O_ jtwc_sh SH061975 -17.0000 -173.700 -1 -17.0000 186.300 TC 35 -17.0000 -173.700 2 -17.0000 -173.700 TC 25 16 146
1974353S15185 1975 142 SP MM NOT_NAMED 1974-12-19 03:00:00 TS -17.7062 -173.239 main 441 441 P________PP_P_ SH061975 -17.7199 -173.257 -1 -17.7199 -173.257 TC 35 -17.6556 -173.228 2 -17.7528 -173.188 TC 25 17 149
1974353S15185 1975 142 SP MM NOT_NAMED 1974-12-19 06:00:00 TS -18.4720 -172.767 main 526 526 O________OP_O_ jtwc_sh SH061975 -18.5000 -172.800 -1 -18.5000 187.200 TC 35 -18.3950 -172.750 2 -18.5000 -172.700 TC 25 18 149
1974353S15185 1975 142 SP MM NOT_NAMED 1974-12-19 09:00:00 TS -19.2285 -172.280 main 604 604 P________PP_P_ SH061975 -19.2425 -172.300 -1 -19.2425 -172.300 TC 35 -19.1869 -172.271 2 -19.2423 -172.249 TC 27 18 149
1974353S15185 1975 142 SP MM NOT_NAMED 1974-12-19 12:00:00 TS -20.0000 -171.800 main 695 695 O________OO_O_ jtwc_sh SH061975 -20.0000 -171.800 -1 -20.0000 188.200 TC 35 -20.0000 -171.800 2 -20.0000 -171.800 TC 30 18 150
1974353S15185 1975 142 SP MM NOT_NAMED 1974-12-19 15:00:00 TS -20.7938 -171.318 main 789 789 P________PP_P_ SH061975 -20.7923 -171.342 -1 -20.7923 -171.342 TC 35 -20.7980 -171.295 2 -20.7925 -171.292 TC 30 18 151
1974353S15185 1975 142 SP MM NOT_NAMED 1974-12-19 18:00:00 TS -21.6020 -170.851 main 883 883 O________OP_O_ jtwc_sh SH061975 -21.6000 -170.900 -1 -21.6000 189.100 TC 35 -21.6079 -170.804 2 -21.6000 -170.800 TC 30 18 152
1974353S15185 1975 142 SP MM NOT_NAMED 1974-12-19 21:00:00 TS -22.4147 -170.389 main 980 980 P________PP_P_ SH061975 -22.4151 -170.420 -1 -22.4151 -170.420 TC 35 -22.4138 -170.361 2 -22.4149 -170.355 TC 32 18 154
1974353S15185 1975 142 SP MM NOT_NAMED 1974-12-20 00:00:00 TS -23.2000 -170.000 main 1076 1076 O________OO_O_ jtwc_sh SH061975 -23.2000 -170.000 -1 -23.2000 190.000 TC 35 -23.2000 -170.000 2 -23.2000 -170.000 TC 35 16 158
1974353S15185 1975 142 SP MM NOT_NAMED 1974-12-20 03:00:00 TS -23.9169 -169.719 main 1159 1159 P________PP_P_ SH061975 -23.9074 -169.690 -1 -23.9074 -169.690 TC 35 -23.9457 -169.741 2 -23.9073 -169.754 TC 35 15 164
1974353S15185 1975 142 SP MM NOT_NAMED 1974-12-20 06:00:00 TS -24.6179 -169.543 main 1240 1240 O________OP_O_ jtwc_sh SH061975 -24.6000 -169.500 -1 -24.6000 190.500 TC 35 -24.6715 -169.570 2 -24.6000 -169.600 TC 35 15 170
1974353S15185 1975 142 SP MM NOT_NAMED 1974-12-20 09:00:00 TS -25.3572 -169.451 main 1327 1327 P________PP_P_ SH061975 -25.3499 -169.427 -1 -25.3499 -169.427 TC 35 -25.3866 -169.464 2 -25.3425 -169.485 TC 37 15 175
1974353S15185 1975 142 SP MM NOT_NAMED 1974-12-20 12:00:00 TS -26.1000 -169.400 main 1406 1406 O________OO_O_ jtwc_sh SH061975 -26.1000 -169.400 -1 -26.1000 190.600 TC 35 -26.1000 -169.400 2 -26.1000 -169.400 TC 40 15 175
1974353S15185 1975 142 SP MM NOT_NAMED 1974-12-20 15:00:00 TS -26.8378 -169.290 main 1484 1484 P________PP_P_ SH061975 -26.8000 -169.285 -1 -26.8000 -169.285 TC 35 -26.8937 -169.310 2 -26.8575 -169.278 TC 40 15 174
1974353S15185 1975 142 SP MM NOT_NAMED 1974-12-20 18:00:00 TS -27.5693 -169.215 main 1574 1542 O________OP_O_ jtwc_sh SH061975 -27.5000 -169.200 -1 -27.5000 190.800 TC 35 -27.6771 -169.260 2 -27.6000 -169.200 TC 40 15 178
1974353S15185 1975 142 SP MM NOT_NAMED 1974-12-20 21:00:00 TS -28.3386 -169.223 main 1542 1480 P________PP_P_ SH061975 -28.2950 -169.212 -1 -28.2950 -169.212 TC 35 -28.3969 -169.254 2 -28.3674 -169.212 TC 40 14 183
1974353S15185 1975 142 SP MM NOT_NAMED 1974-12-21 00:00:00 TS -29.0000 -169.300 main 1480 1442 O________OO_O_ jtwc_sh SH061975 -29.0000 -169.300 -1 -29.0000 190.700 TC 35 -29.0000 -169.300 2 -29.0000 -169.300 TC 40 11 189
1974353S15185 1975 142 SP MM NOT_NAMED 1974-12-21 03:00:00 TS -29.4378 -169.426 main 1442 1405 P________PP_P_ SH061975 -29.4825 -169.435 -1 -29.4825 -169.435 TC 35 -29.4262 -169.399 2 -29.3600 -169.435 TC 42 8 199
1974353S15185 1975 142 SP MM NOT_NAMED 1974-12-21 06:00:00 TS -29.7337 -169.587 main 1405 1376 O________OP_O_ jtwc_sh SH061975 -29.8000 -169.600 -1 -29.8000 190.400 TC 35 -29.7349 -169.547 2 -29.6000 -169.600 TC 45 6 207
1974353S15185 1975 142 SP MM NOT_NAMED 1974-12-21 09:00:00 TS -29.9765 -169.743 main 1376 1347 P________PP_P_ SH061975 -30.0150 -169.750 -1 -30.0150 -169.750 TC 35 -29.9762 -169.721 2 -29.9000 -169.750 TC 45 5 210
1974353S15185 1975 142 SP MM NOT_NAMED 1974-12-21 12:00:00 TS -30.2000 -169.900 main 1347 1317 O________OO_O_ jtwc_sh SH061975 -30.2000 -169.900 -1 -30.2000 190.100 TC 35 -30.2000 -169.900 2 -30.2000 -169.900 TC 45 6 207
1974353S15185 1975 142 SP MM NOT_NAMED 1974-12-21 15:00:00 TS -30.5007 -170.047 main 1317 1281 P________PP_P_ SH061975 -30.4925 -170.050 -1 -30.4925 -170.050 TC 35 -30.5104 -170.038 2 -30.5075 -170.050 TC 47 7 203
1974353S15185 1975 142 SP MM NOT_NAMED 1974-12-21 18:00:00 TS -30.8024 -170.194 main 1281 1253 O________OP_O_ jtwc_sh SH061975 -30.8000 -170.200 -1 -30.8000 189.800 TC 35 -30.8097 -170.178 2 -30.8000 -170.200 TC 50 6 204
1974353S15185 1975 142 SP MM NOT_NAMED 1974-12-21 21:00:00 TS -31.0741 -170.339 main 1253 1224 P________PP_P_ SH061975 -31.0725 -170.343 -1 -31.0725 -170.343 TC 35 -31.0792 -170.328 2 -31.0725 -170.343 TC 50 6 208
1974353S15185 1975 142 SP MM NOT_NAMED 1974-12-22 00:00:00 TS -31.3000 -170.500 main 1224 1195 O________OO_O_ jtwc_sh SH061975 -31.3000 -170.500 -1 -31.3000 189.500 TC 35 -31.3000 -170.500 2 -31.3000 -170.500 TC 50 5 217
1974353S15185 1975 142 SP MM NOT_NAMED 1974-12-22 03:00:00 TS -31.4776 -170.690 main 1195 1173 P________PP_P_ SH061975 -31.4800 -170.685 -1 -31.4800 -170.685 TC 35 -31.4707 -170.704 2 -31.4800 -170.685 TC 47 5 229
1974353S15185 1975 142 SP MM NOT_NAMED 1974-12-22 06:00:00 TS -31.5975 -170.907 main 1173 1152 O________OP_O_ jtwc_sh SH061975 -31.6000 -170.900 -1 -31.6000 189.100 TC 35 -31.5900 -170.928 2 -31.6000 -170.900 TC 45 4 244
1974353S15185 1975 142 SP MM NOT_NAMED 1974-12-22 09:00:00 TS -31.6667 -171.148 main 1152 1129 P________PP_P_ SH061975 -31.6650 -171.150 -1 -31.6650 -171.150 TC 35 -31.6644 -171.163 2 -31.6724 -171.128 TC 45 4 256
1974353S15185 1975 142 SP MM NOT_NAMED 1974-12-22 12:00:00 TS -31.7000 -171.400 main 1129 1100 O________OO_O_ jtwc_sh SH061975 -31.7000 -171.400 -1 -31.7000 188.600 TC 35 -31.7000 -171.400 2 -31.7000 -171.400 TC 45 5 259
1974353S15185 1975 142 SP MM NOT_NAMED 1974-12-22 15:00:00 TS -31.7558 -171.689 main 1100 1086 P________PP_P_ SH061975 -31.7724 -171.600 -1 -31.7724 -171.600 TC 35 -31.7630 -171.786 2 -31.7152 -171.773 TC 42 5 262
1974353S15185 1975 142 SP MM NOT_NAMED 1974-12-22 18:00:00 TS -31.7708 -171.962 main 1079 1064 O________OP_O_ jtwc_sh SH061975 -31.8000 -171.800 -1 -31.8000 188.200 TC 35 -31.7831 -172.146 2 -31.7000 -172.100 TC 40 5 272
1974353S15185 1975 142 SP MM NOT_NAMED 1974-12-22 21:00:00 TS -31.7358 -172.255 main 1065 1065 P________PP_P_ SH061975 -31.7525 -172.148 -1 -31.7525 -172.148 TC 35 -31.7365 -172.359 2 -31.7017 -172.366 TC 40 3 301
1974353S15185 1975 142 SP MM NOT_NAMED 1974-12-23 00:00:00 TS -31.6000 -172.300 main 1072 1072 O________OO_O_ jtwc_sh SH061975 -31.6000 -172.300 -1 -31.6000 187.700 TC 35 -31.6000 -172.300 2 -31.6000 -172.300 TC 40 5 37
1974353S15185 1975 142 SP MM NOT_NAMED 1974-12-23 03:00:00 TS -31.3350 -171.907 main 1122 1122 P________PP_P_ SH061975 -31.3438 -172.046 -1 -31.3438 -172.046 TC 35 -31.3563 -171.861 2 -31.2959 -171.676 TC 40 11 57
1974353S15185 1975 142 SP MM NOT_NAMED 1974-12-23 06:00:00 TS -30.9803 -171.187 main 1194 1194 O________OP_O_ jtwc_sh SH061975 -31.0000 -171.400 -1 -31.0000 188.600 TC 35 -31.0210 -171.150 2 -30.9000 -170.800 TC 40 16 62
1974353S15185 1975 142 SP MM NOT_NAMED 1974-12-23 09:00:00 TS -30.6035 -170.298 main 1288 1288 P________PP_P_ SH061975 -30.6162 -170.424 -1 -30.6162 -170.424 TC 35 -30.6249 -170.264 2 -30.5565 -170.081 TC 37 18 64
1974353S15185 1975 142 SP MM NOT_NAMED 1974-12-23 12:00:00 TS -30.2000 -169.300 main 1390 1390 O________OO_O_ jtwc_sh SH061975 -30.2000 -169.300 -1 -30.2000 190.700 TC 35 -30.2000 -169.300 2 -30.2000 -169.300 TC 35 19 65
1974353S15185 1975 142 SP MM NOT_NAMED 1974-12-23 15:00:00 TS -29.8138 -168.351 main 1485 1485 P________PP_P_ SH061975 -29.8065 -168.336 -1 -29.8065 -168.336 TC 35 -29.8273 -168.351 2 -29.8149 -168.380 TC 35 18 64
1974353S15185 1975 142 SP MM NOT_NAMED 1974-12-23 18:00:00 TS -29.4071 -167.389 main 1588 1588 O________OP_O_ jtwc_sh SH061975 -29.4000 -167.400 -1 -29.4000 192.600 TC 35 -29.4285 -167.355 2 -29.4000 -167.400 TC 35 19 64
1974353S15185 1975 142 SP MM NOT_NAMED 1974-12-23 21:00:00 TS -28.9750 -166.405 main 1691 1691 P________PP_P_ SH061975 -28.9725 -166.413 -1 -28.9725 -166.413 TC 35 -28.9899 -166.382 2 -28.9650 -166.413 TC 35 19 61
1974353S15185 1975 142 SP MM NOT_NAMED 1974-12-24 00:00:00 TS -28.5000 -165.500 main 1783 1762 O________OO_O_ jtwc_sh SH061975 -28.5000 -165.500 -1 -28.5000 194.500 TC 35 -28.5000 -165.500 2 -28.5000 -165.500 TC 35 18 56
1974353S15185 1975 142 SP MM NOT_NAMED 1974-12-24 03:00:00 TS -27.9872 -164.740 main 1767 1737 P________PP_P_ SH061975 -27.9794 -164.733 -1 -27.9794 -164.733 TC 30 -27.9531 -164.759 2 -28.0369 -164.734 TC 32 16 49
1974353S15185 1975 142 SP MM NOT_NAMED 1974-12-24 06:00:00 TS -27.4152 -164.109 main 1737 1706 O________OP_O_ jtwc_sh SH061975 -27.4000 -164.100 -1 -27.4000 195.900 TC 25 -27.3607 -164.138 2 -27.5000 -164.100 TC 30 16 40
1974353S15185 1975 142 SP MM NOT_NAMED 1974-12-24 09:00:00 TS -26.7767 -163.578 main 1706 1670 P________PP_P_ SH061975 -26.7654 -163.571 -1 -26.7654 -163.571 TC 25 -26.7382 -163.597 2 -26.8379 -163.571 TC 27 16 34
1974353S15185 1975 142 SP MM NOT_NAMED 1974-12-24 12:00:00 TS -26.1000 -163.100 main 1670 O________OO_O_ jtwc_sh SH061975 -26.1000 -163.100 -1 -26.1000 196.900 TC 25 -26.1000 -163.100 6 -26.1000 -163.100 TC 25 16 32

デジタル台風データ・検索

IBTrACS Databaseについて

本データベースは、米国NOAAが公開する1842年以降の世界の熱帯低気圧のベストトラックデータアーカイブInternational Best Track Archive for Climate Stewardship (IBTrACS)を、ウェブで閲覧しやすい形式に変換したものです。

最終更新日:2021-12-01